Time;durP1;ratioP1;P1;durP2;ratioP2;P2;SDS_P1;SDS_P2;PMS_P1;PMS_P2;Temp;Humidity;BMP_temperature;BMP_pressure;BME280_temperature;BME280_humidity;BME280_pressure;Samples;Min_cycle;Max_cycle;Signal;HPM_P1;HPM_P2
2022/04/15 00:02:24;;;;;;;6.53;3.60;;;;;;;;;;5078026;28;20028;-80
2022/04/15 00:04:50;;;;;;;6.75;2.85;;;;;;;;;;5060109;28;20036;-81
2022/04/15 00:07:17;;;;;;;5.53;2.78;;;;;;;;;;5060292;28;20085;-80
2022/04/15 00:09:43;;;;;;;7.93;3.10;;;;;;;;;;5078019;28;20036;-80
2022/04/15 00:12:10;;;;;;;11.52;3.60;;;;;;;;;;5059947;28;20036;-81
2022/04/15 00:14:36;;;;;;;8.38;4.22;;;;;;;;;;5060441;28;20380;-80
2022/04/15 00:17:02;;;;;;;6.25;3.85;;;;;;;;;;5066865;28;20127;-80
2022/04/15 00:19:27;;;;;;;8.30;3.97;;;;;;;;;;5079854;28;20031;-80
2022/04/15 00:21:53;;;;;;;5.65;3.60;;;;;;;;;;5043057;28;20024;-81
2022/04/15 00:24:18;;;;;;;5.07;3.28;;;;;;;;;;5077671;28;20036;-81
2022/04/15 00:26:44;;;;;;;6.85;3.40;;;;;;;;;;5059904;28;20028;-81
2022/04/15 00:29:09;;;;;;;7.97;3.55;;;;;;;;;;5077582;28;20030;-81
2022/04/15 00:31:35;;;;;;;7.32;3.47;;;;;;;;;;5059861;28;20039;-81
2022/04/15 00:34:02;;;;;;;7.40;3.38;;;;;;;;;;5077235;28;20052;-81
2022/04/15 00:36:27;;;;;;;6.43;3.80;;;;;;;;;;5078938;28;20089;-81
2022/04/15 00:38:53;;;;;;;7.28;3.92;;;;;;;;;;5083264;28;20072;-81
2022/04/15 00:41:18;;;;;;;7.35;3.25;;;;;;;;;;5078007;28;20070;-81
2022/04/15 00:43:44;;;;;;;7.22;3.88;;;;;;;;;;5077446;28;20035;-81
2022/04/15 00:46:10;;;;;;;7.72;4.28;;;;;;;;;;5059765;28;20036;-81
2022/04/15 00:48:36;;;;;;;7.43;4.00;;;;;;;;;;5077474;28;20040;-80
2022/04/15 00:51:02;;;;;;;8.48;3.95;;;;;;;;;;5076875;28;20029;-81
2022/04/15 00:53:28;;;;;;;13.23;4.68;;;;;;;;;;5077110;28;20338;-81
2022/04/15 00:55:57;;;;;;;7.78;4.57;;;;;;;;;;5059320;28;20047;-81
2022/04/15 00:58:23;;;;;;;7.82;4.45;;;;;;;;;;5066848;28;20024;-81
2022/04/15 01:00:49;;;;;;;7.95;4.68;;;;;;;;;;5059675;28;20044;-81
2022/04/15 01:03:17;;;;;;;11.70;4.82;;;;;;;;;;5042561;28;20052;-81
2022/04/15 01:05:42;;;;;;;12.32;5.25;;;;;;;;;;5076724;28;20028;-81
2022/04/15 01:08:08;;;;;;;14.18;5.00;;;;;;;;;;5042565;28;20034;-81
2022/04/15 01:10:35;;;;;;;9.73;4.93;;;;;;;;;;5042110;28;20050;-81
2022/04/15 01:13:02;;;;;;;8.00;4.50;;;;;;;;;;5042576;28;20036;-81
2022/04/15 01:15:28;;;;;;;7.65;4.20;;;;;;;;;;5042356;28;20032;-81
2022/04/15 01:17:54;;;;;;;9.15;4.18;;;;;;;;;;5066735;28;20445;-81
2022/04/15 01:20:19;;;;;;;8.15;3.88;;;;;;;;;;5060536;28;20016;-80
2022/04/15 01:22:52;;;;;;;10.15;4.07;;;;;;;;;;5076528;28;20060;-81
2022/04/15 01:25:17;;;;;;;5.97;3.50;;;;;;;;;;5058057;28;20068;-81
2022/04/15 01:27:47;;;;;;;6.45;3.65;;;;;;;;;;5076511;28;20033;-81
2022/04/15 01:30:20;;;;;;;7.57;4.40;;;;;;;;;;5076547;28;20051;-81
2022/04/15 01:32:46;;;;;;;7.90;4.15;;;;;;;;;;5058593;28;20028;-81
2022/04/15 01:35:14;;;;;;;8.05;4.57;;;;;;;;;;5075948;28;20076;-81
2022/04/15 01:37:40;;;;;;;8.43;4.28;;;;;;;;;;5078986;28;20009;-81
2022/04/15 01:40:08;;;;;;;10.93;4.10;;;;;;;;;;5079823;28;20040;-80
2022/04/15 01:42:35;;;;;;;8.27;4.05;;;;;;;;;;5058440;28;20056;-81
2022/04/15 01:45:00;;;;;;;7.32;3.97;;;;;;;;;;5076288;28;20115;-81
2022/04/15 01:47:26;;;;;;;11.20;4.20;;;;;;;;;;5076187;28;20097;-80
2022/04/15 01:49:52;;;;;;;7.95;4.25;;;;;;;;;;5076175;28;20039;-80
2022/04/15 01:52:17;;;;;;;6.28;3.75;;;;;;;;;;5077353;28;20029;-80
2022/04/15 01:54:42;;;;;;;6.60;3.70;;;;;;;;;;5076245;28;20560;-80
2022/04/15 01:57:08;;;;;;;7.28;3.88;;;;;;;;;;5076296;28;20028;-80
2022/04/15 01:59:33;;;;;;;7.82;3.95;;;;;;;;;;5084936;28;20449;-81
2022/04/15 02:01:59;;;;;;;12.48;3.72;;;;;;;;;;5058222;28;20166;-80
2022/04/15 02:04:25;;;;;;;5.78;3.58;;;;;;;;;;5075636;28;20037;-80
2022/04/15 02:06:51;;;;;;;7.60;3.85;;;;;;;;;;5074680;28;20027;-81
2022/04/15 02:09:16;;;;;;;8.27;4.03;;;;;;;;;;5057869;28;20024;-80
2022/04/15 02:11:42;;;;;;;6.63;3.40;;;;;;;;;;5041245;28;20051;-81
2022/04/15 02:14:08;;;;;;;10.15;4.40;;;;;;;;;;5075503;28;20032;-80
2022/04/15 02:16:34;;;;;;;10.25;4.00;;;;;;;;;;5075626;28;20024;-81
2022/04/15 02:18:59;;;;;;;6.13;3.53;;;;;;;;;;5084694;28;20013;-81
2022/04/15 02:21:25;;;;;;;6.82;3.50;;;;;;;;;;5058286;28;20039;-81
2022/04/15 02:23:50;;;;;;;6.25;3.70;;;;;;;;;;5057927;28;20040;-81
2022/04/15 02:26:16;;;;;;;7.25;3.60;;;;;;;;;;5057904;28;20028;-81
2022/04/15 02:28:41;;;;;;;6.95;3.65;;;;;;;;;;5075394;28;20025;-81
2022/04/15 02:31:07;;;;;;;4.40;3.28;;;;;;;;;;5075594;28;20043;-81
2022/04/15 02:33:32;;;;;;;5.07;3.10;;;;;;;;;;5057035;28;20157;-80
2022/04/15 02:35:57;;;;;;;5.93;3.17;;;;;;;;;;5075114;28;20435;-81
2022/04/15 02:38:23;;;;;;;5.80;3.47;;;;;;;;;;5075890;28;20029;-81
2022/04/15 02:40:48;;;;;;;6.05;3.25;;;;;;;;;;5060872;28;20036;-81
2022/04/15 02:43:14;;;;;;;8.90;3.80;;;;;;;;;;5075277;28;20020;-81
2022/04/15 02:45:39;;;;;;;5.70;2.70;;;;;;;;;;5057113;28;20047;-81
2022/04/15 02:48:05;;;;;;;6.13;3.58;;;;;;;;;;5040246;28;20047;-81
2022/04/15 02:50:32;;;;;;;7.28;3.25;;;;;;;;;;5057306;28;20133;-81
2022/04/15 02:52:59;;;;;;;6.13;3.33;;;;;;;;;;5074852;28;20029;-81
2022/04/15 02:55:25;;;;;;;5.93;3.60;;;;;;;;;;5057324;28;20032;-81
2022/04/15 02:57:51;;;;;;;8.93;4.35;;;;;;;;;;5075052;28;20086;-81
2022/04/15 03:00:16;;;;;;;8.30;4.00;;;;;;;;;;5084071;28;20119;-81
2022/04/15 03:02:42;;;;;;;11.70;4.38;;;;;;;;;;5079145;28;20009;-81
2022/04/15 03:05:09;;;;;;;9.18;3.83;;;;;;;;;;5080444;28;20502;-81
2022/04/15 03:07:35;;;;;;;6.75;3.95;;;;;;;;;;5056999;28;20074;-81
2022/04/15 03:10:01;;;;;;;8.50;4.20;;;;;;;;;;5056898;28;20050;-81
2022/04/15 03:12:26;;;;;;;8.93;3.53;;;;;;;;;;5040136;28;20489;-81
2022/04/15 03:14:53;;;;;;;7.28;3.60;;;;;;;;;;5062673;28;20028;-78
2022/04/15 03:17:19;;;;;;;10.88;4.10;;;;;;;;;;5090911;28;20027;-81
2022/04/15 03:19:44;;;;;;;6.20;3.40;;;;;;;;;;5079563;28;20024;-81
2022/04/15 03:22:09;;;;;;;9.35;3.97;;;;;;;;;;5075203;28;20025;-82
2022/04/15 03:24:35;;;;;;;6.65;3.45;;;;;;;;;;5074316;28;20068;-80
2022/04/15 03:27:00;;;;;;;6.43;3.78;;;;;;;;;;5074368;28;20081;-81
2022/04/15 03:29:26;;;;;;;8.70;3.63;;;;;;;;;;5073999;28;20033;-81
2022/04/15 03:31:51;;;;;;;7.65;3.30;;;;;;;;;;5074080;28;20031;-81
2022/04/15 03:34:17;;;;;;;5.85;3.20;;;;;;;;;;5074124;28;20103;-80
2022/04/15 03:36:42;;;;;;;9.68;3.38;;;;;;;;;;5056321;28;20109;-80
2022/04/15 03:39:08;;;;;;;8.43;3.30;;;;;;;;;;5075166;28;20365;-81
2022/04/15 03:41:34;;;;;;;6.35;3.80;;;;;;;;;;5062666;28;20085;-81
2022/04/15 03:44:01;;;;;;;7.10;3.55;;;;;;;;;;5055910;28;20047;-81
2022/04/15 03:46:27;;;;;;;7.32;3.45;;;;;;;;;;5073969;28;20025;-81
2022/04/15 03:48:52;;;;;;;8.23;3.88;;;;;;;;;;5073066;28;20028;-80
2022/04/15 03:51:17;;;;;;;5.82;3.75;;;;;;;;;;5056092;28;20024;-81
2022/04/15 03:53:43;;;;;;;8.02;4.20;;;;;;;;;;5056768;28;20419;-80
2022/04/15 03:56:08;;;;;;;10.52;4.20;;;;;;;;;;5074598;28;20123;-81
2022/04/15 03:58:35;;;;;;;12.90;4.78;;;;;;;;;;5073951;28;20091;-80
2022/04/15 04:01:00;;;;;;;7.65;4.85;;;;;;;;;;5080396;28;20040;-81
2022/04/15 04:03:26;;;;;;;10.65;5.20;;;;;;;;;;5080734;28;20029;-81
2022/04/15 04:05:51;;;;;;;8.80;5.05;;;;;;;;;;5095521;28;20033;-80
2022/04/15 04:08:17;;;;;;;17.70;5.78;;;;;;;;;;5095002;28;20062;-79
2022/04/15 04:10:42;;;;;;;14.88;5.95;;;;;;;;;;5093243;28;20092;-79
2022/04/15 04:13:08;;;;;;;13.25;5.72;;;;;;;;;;5091381;28;20043;-79
2022/04/15 04:15:33;;;;;;;16.50;6.78;;;;;;;;;;5073744;28;20040;-80
2022/04/15 04:17:59;;;;;;;29.98;9.10;;;;;;;;;;5086621;28;20032;-80
2022/04/15 04:20:25;;;;;;;33.15;8.65;;;;;;;;;;5040967;28;20039;-80
2022/04/15 04:22:50;;;;;;;21.13;7.63;;;;;;;;;;5075513;28;20064;-79
2022/04/15 04:25:15;;;;;;;22.85;6.55;;;;;;;;;;5073836;28;20039;-76
2022/04/15 04:27:42;;;;;;;13.93;5.95;;;;;;;;;;5073479;28;20514;-81
2022/04/15 04:30:08;;;;;;;11.23;5.28;;;;;;;;;;5081328;28;20036;-80
2022/04/15 04:32:34;;;;;;;17.33;8.48;;;;;;;;;;5093747;28;20032;-81
2022/04/15 04:34:59;;;;;;;9.75;5.88;;;;;;;;;;5072628;28;20052;-80
2022/04/15 04:37:25;;;;;;;15.25;9.02;;;;;;;;;;5066770;28;20040;-80
2022/04/15 04:39:50;;;;;;;14.55;8.55;;;;;;;;;;5068947;28;20565;-81
2022/04/15 04:42:16;;;;;;;11.15;6.82;;;;;;;;;;5060978;28;20131;-80
2022/04/15 04:44:42;;;;;;;10.60;5.60;;;;;;;;;;5068491;28;20033;-79
2022/04/15 04:47:09;;;;;;;9.50;5.07;;;;;;;;;;5058400;28;20589;-80
2022/04/15 04:49:37;;;;;;;14.63;5.72;;;;;;;;;;5074298;28;20032;-81
2022/04/15 04:52:03;;;;;;;18.08;6.13;;;;;;;;;;5075153;28;20032;-80
2022/04/15 04:54:30;;;;;;;12.93;5.88;;;;;;;;;;5066665;28;20544;-79
2022/04/15 04:56:55;;;;;;;13.70;5.30;;;;;;;;;;5079535;28;20090;-81
2022/04/15 04:59:25;;;;;;;9.38;5.63;;;;;;;;;;5055902;28;20037;-81
2022/04/15 05:01:52;;;;;;;12.93;5.97;;;;;;;;;;5065875;28;20044;-80
2022/04/15 05:04:19;;;;;;;13.57;5.40;;;;;;;;;;5073213;28;20037;-79
2022/04/15 05:06:44;;;;;;;18.48;5.82;;;;;;;;;;5075821;28;20005;-83
2022/04/15 05:11:57;;;;;;;7.85;4.70;;;;;;;;;;5434058;22;20061;-80
2022/04/15 05:14:23;;;;;;;15.32;6.03;;;;;;;;;;5116591;28;20031;-80
2022/04/15 05:16:48;;;;;;;11.80;5.90;;;;;;;;;;5110284;28;20131;-79
2022/04/15 05:19:14;;;;;;;13.93;5.25;;;;;;;;;;5108269;27;20142;-79
2022/04/15 05:21:40;;;;;;;14.05;6.05;;;;;;;;;;5109805;28;20028;-80
2022/04/15 05:24:09;;;;;;;9.20;5.78;;;;;;;;;;5116195;28;20035;-80
2022/04/15 05:26:35;;;;;;;14.57;6.70;;;;;;;;;;5115531;28;20016;-81
2022/04/15 05:29:01;;;;;;;16.83;6.88;;;;;;;;;;5114609;28;20033;-78
2022/04/15 05:31:26;;;;;;;17.13;7.47;;;;;;;;;;5116591;28;20088;-79
2022/04/15 05:33:52;;;;;;;16.40;7.38;;;;;;;;;;5118164;28;20381;-79
2022/04/15 05:36:17;;;;;;;14.75;6.47;;;;;;;;;;5114736;28;20052;-80
2022/04/15 05:38:43;;;;;;;18.60;7.57;;;;;;;;;;5116181;28;20529;-82
2022/04/15 05:41:08;;;;;;;14.45;7.55;;;;;;;;;;5116343;28;20039;-80
2022/04/15 05:43:34;;;;;;;18.50;6.88;;;;;;;;;;5117747;28;20405;-80
2022/04/15 05:45:59;;;;;;;17.98;7.82;;;;;;;;;;5116722;28;20691;-81
2022/04/15 05:48:25;;;;;;;10.20;6.95;;;;;;;;;;5112989;28;20035;-80
2022/04/15 05:50:51;;;;;;;14.35;7.35;;;;;;;;;;5115775;28;20638;-82
2022/04/15 05:53:17;;;;;;;18.55;8.30;;;;;;;;;;5116949;28;20648;-82
2022/04/15 05:55:55;;;;;;;21.40;8.70;;;;;;;;;;5123313;27;20031;-80
2022/04/15 05:58:22;;;;;;;13.57;7.90;;;;;;;;;;5113851;27;20039;-77
2022/04/15 06:00:47;;;;;;;16.50;7.55;;;;;;;;;;5110565;28;20096;-80
2022/04/15 06:03:14;;;;;;;13.45;8.50;;;;;;;;;;5100284;28;20421;-79
2022/04/15 06:05:40;;;;;;;15.20;7.32;;;;;;;;;;5115730;28;20459;-79
2022/04/15 06:08:05;;;;;;;18.10;8.50;;;;;;;;;;5111345;28;20051;-79
2022/04/15 06:10:31;;;;;;;15.82;8.13;;;;;;;;;;5119719;28;20036;-80
2022/04/15 06:13:04;;;;;;;17.50;8.73;;;;;;;;;;5131989;28;20050;-82
2022/04/15 06:15:33;;;;;;;21.40;8.85;;;;;;;;;;5116449;28;20095;-77
2022/04/15 06:18:19;;;;;;;13.70;9.10;;;;;;;;;;5113325;28;20019;-74
2022/04/15 06:20:45;;;;;;;14.32;9.10;;;;;;;;;;5109576;28;20127;-75
2022/04/15 06:23:11;;;;;;;16.90;8.48;;;;;;;;;;5114869;27;20126;-75
2022/04/15 06:25:37;;;;;;;14.68;9.07;;;;;;;;;;5095992;28;20064;-76
2022/04/15 06:28:06;;;;;;;16.45;8.75;;;;;;;;;;5109970;28;20039;-75
2022/04/15 06:30:33;;;;;;;17.70;8.33;;;;;;;;;;5113877;28;20043;-76
2022/04/15 06:32:58;;;;;;;17.10;8.77;;;;;;;;;;5116329;27;20631;-76
2022/04/15 06:35:23;;;;;;;19.40;9.40;;;;;;;;;;5112137;27;20031;-76
2022/04/15 06:37:49;;;;;;;12.48;8.30;;;;;;;;;;5112709;28;20457;-78
2022/04/15 06:40:33;;;;;;;11.90;6.93;;;;;;;;;;5117702;27;20030;-78
2022/04/15 06:43:02;;;;;;;12.02;6.03;;;;;;;;;;5099499;28;20046;-77
2022/04/15 06:45:27;;;;;;;10.05;6.30;;;;;;;;;;5127465;27;20034;-75
2022/04/15 06:47:52;;;;;;;11.15;6.35;;;;;;;;;;5131943;27;20031;-77
2022/04/15 06:50:21;;;;;;;12.18;6.93;;;;;;;;;;5111160;27;20051;-81
2022/04/15 06:52:48;;;;;;;15.20;6.57;;;;;;;;;;5100850;27;20040;-87
2022/04/15 06:58:48;;;;;;;12.55;6.38;;;;;;;;;;5099397;27;20034;-85
2022/04/15 07:01:15;;;;;;;10.35;6.35;;;;;;;;;;5096402;28;20103;-85
2022/04/15 07:03:40;;;;;;;8.13;5.95;;;;;;;;;;5127747;27;20048;-86
2022/04/15 07:06:06;;;;;;;10.60;6.63;;;;;;;;;;5099061;28;20032;-84
2022/04/15 07:08:31;;;;;;;11.80;6.85;;;;;;;;;;5108805;27;20062;-84
2022/04/15 07:10:57;;;;;;;8.32;6.03;;;;;;;;;;5105188;27;20043;-88
2022/04/15 07:13:22;;;;;;;12.23;7.00;;;;;;;;;;5084422;28;20534;-85
2022/04/15 07:15:50;;;;;;;12.30;7.72;;;;;;;;;;5089260;28;20035;-82
2022/04/15 07:18:16;;;;;;;12.32;8.63;;;;;;;;;;5106665;28;20028;-85
2022/04/15 07:20:42;;;;;;;11.65;7.90;;;;;;;;;;5104244;28;20540;-84
2022/04/15 07:23:08;;;;;;;12.75;8.18;;;;;;;;;;5122625;27;20027;-84
2022/04/15 07:25:34;;;;;;;22.42;13.98;;;;;;;;;;5120158;27;20515;-84
2022/04/15 07:28:00;;;;;;;16.00;9.18;;;;;;;;;;5107983;27;20035;-86
2022/04/15 07:30:27;;;;;;;13.07;7.53;;;;;;;;;;5098891;28;20089;-85
2022/04/15 07:32:52;;;;;;;10.32;7.45;;;;;;;;;;5115690;27;20048;-84
2022/04/15 07:35:18;;;;;;;12.30;7.20;;;;;;;;;;5110718;27;20032;-83
2022/04/15 07:37:43;;;;;;;13.23;7.13;;;;;;;;;;5110945;28;20019;-84
2022/04/15 07:40:10;;;;;;;15.23;7.38;;;;;;;;;;5110999;28;20026;-84
2022/04/15 07:42:36;;;;;;;11.05;7.97;;;;;;;;;;5114079;28;20022;-83
2022/04/15 07:45:01;;;;;;;13.90;7.88;;;;;;;;;;5100616;28;20039;-84
2022/04/15 07:47:27;;;;;;;13.68;7.90;;;;;;;;;;5091685;28;20016;-85
2022/04/15 07:49:52;;;;;;;14.85;7.93;;;;;;;;;;5075217;28;20028;-84
2022/04/15 07:52:27;;;;;;;12.77;8.40;;;;;;;;;;5075078;28;20058;-82
2022/04/15 07:54:53;;;;;;;12.23;8.32;;;;;;;;;;5105567;28;20111;-81
2022/04/15 07:57:19;;;;;;;16.50;9.57;;;;;;;;;;5105993;28;20055;-84
2022/04/15 07:59:44;;;;;;;13.77;9.25;;;;;;;;;;5110139;28;20023;-88
2022/04/15 08:02:13;;;;;;;14.10;8.70;;;;;;;;;;5104573;28;20031;-85
2022/04/15 08:04:41;;;;;;;11.73;8.23;;;;;;;;;;5116938;28;20063;-85
2022/04/15 08:07:07;;;;;;;14.18;8.77;;;;;;;;;;5107291;28;20118;-83
2022/04/15 08:09:32;;;;;;;12.20;7.68;;;;;;;;;;5130002;28;20106;-86
2022/04/15 08:11:58;;;;;;;13.15;8.18;;;;;;;;;;5105917;28;20093;-82
2022/04/15 08:14:23;;;;;;;10.35;7.28;;;;;;;;;;5079568;28;20032;-79
2022/04/15 08:17:04;;;;;;;13.95;7.65;;;;;;;;;;5106972;28;20118;-85
2022/04/15 08:19:31;;;;;;;11.75;7.10;;;;;;;;;;5105756;28;20106;-82
2022/04/15 08:21:58;;;;;;;11.07;7.35;;;;;;;;;;5105828;27;20036;-82
2022/04/15 08:24:23;;;;;;;10.25;7.15;;;;;;;;;;5091057;28;20076;-84
2022/04/15 08:26:49;;;;;;;14.13;7.70;;;;;;;;;;5096470;28;20024;-84
2022/04/15 08:29:15;;;;;;;12.52;7.38;;;;;;;;;;5106833;27;20395;-85
2022/04/15 08:31:41;;;;;;;11.27;6.68;;;;;;;;;;5118726;27;20028;-82
2022/04/15 08:34:07;;;;;;;9.07;6.60;;;;;;;;;;5083876;28;20031;-81
2022/04/15 08:36:32;;;;;;;11.10;7.55;;;;;;;;;;5076036;28;20023;-83
2022/04/15 08:38:58;;;;;;;14.48;7.43;;;;;;;;;;5086579;28;20424;-84
2022/04/15 08:41:24;;;;;;;9.32;6.95;;;;;;;;;;5115698;28;20032;-83
2022/04/15 08:43:50;;;;;;;13.73;8.02;;;;;;;;;;5105190;28;20020;-83
2022/04/15 08:46:21;;;;;;;10.85;7.22;;;;;;;;;;5113067;28;20032;-83
2022/04/15 08:49:02;;;;;;;10.30;7.00;;;;;;;;;;5117572;27;20097;-84
2022/04/15 08:51:29;;;;;;;9.60;6.28;;;;;;;;;;5092076;27;20120;-83
2022/04/15 08:53:54;;;;;;;14.75;6.80;;;;;;;;;;5114560;28;20038;-81
2022/04/15 08:56:22;;;;;;;10.60;7.18;;;;;;;;;;5087343;28;20122;-84
2022/04/15 08:58:48;;;;;;;10.38;6.80;;;;;;;;;;5099024;28;20969;-84
2022/04/15 09:01:14;;;;;;;14.32;7.68;;;;;;;;;;5114955;28;20079;-85
2022/04/15 09:03:39;;;;;;;10.60;7.32;;;;;;;;;;5125005;28;20019;-82
2022/04/15 09:06:15;;;;;;;7.63;5.47;;;;;;;;;;5129504;28;20036;-83
2022/04/15 09:09:08;;;;;;;8.15;5.93;;;;;;;;;;5105863;28;20020;-83
2022/04/15 09:11:35;;;;;;;9.05;6.13;;;;;;;;;;5118760;28;20088;-84
2022/04/15 09:14:03;;;;;;;11.50;6.40;;;;;;;;;;5121390;28;20023;-83
2022/04/15 09:16:30;;;;;;;11.40;6.30;;;;;;;;;;5110664;28;20081;-84
2022/04/15 09:18:56;;;;;;;10.65;6.18;;;;;;;;;;5106735;28;20070;-84
2022/04/15 09:21:24;;;;;;;14.63;6.90;;;;;;;;;;5084750;28;20069;-84
2022/04/15 09:23:54;;;;;;;13.43;7.25;;;;;;;;;;5104483;28;20368;-79
2022/04/15 09:26:23;;;;;;;9.70;6.03;;;;;;;;;;5102442;28;20057;-82
2022/04/15 09:28:51;;;;;;;8.43;5.75;;;;;;;;;;5112123;28;20102;-76
2022/04/15 09:31:17;;;;;;;12.38;5.88;;;;;;;;;;5102886;28;20127;-74
2022/04/15 09:34:01;;;;;;;7.88;5.60;;;;;;;;;;5101534;28;20026;-74
2022/04/15 09:36:27;;;;;;;11.02;6.28;;;;;;;;;;5114822;28;20035;-75
2022/04/15 09:39:14;;;;;;;10.32;5.97;;;;;;;;;;5115416;28;20023;-77
2022/04/15 09:42:02;;;;;;;9.13;5.93;;;;;;;;;;5115041;28;20030;-84
2022/04/15 09:44:31;;;;;;;11.43;6.70;;;;;;;;;;5086892;28;20035;-82
2022/04/15 09:46:57;;;;;;;10.77;7.10;;;;;;;;;;5083782;28;20039;-77
2022/04/15 09:49:22;;;;;;;11.80;7.53;;;;;;;;;;5095319;28;20040;-81
2022/04/15 09:51:54;;;;;;;15.85;7.10;;;;;;;;;;5077538;28;20416;-81
2022/04/15 09:54:26;;;;;;;11.63;6.70;;;;;;;;;;5112733;28;20453;-80
2022/04/15 09:56:52;;;;;;;11.25;7.05;;;;;;;;;;5096620;28;20416;-81
2022/04/15 09:59:23;;;;;;;11.05;6.47;;;;;;;;;;5095673;28;20134;-81
2022/04/15 10:01:53;;;;;;;10.98;6.55;;;;;;;;;;5090854;28;20119;-77
2022/04/15 10:04:19;;;;;;;10.77;7.07;;;;;;;;;;5106673;28;20039;-77
2022/04/15 10:06:44;;;;;;;11.60;6.45;;;;;;;;;;5126034;27;20020;-75
2022/04/15 10:09:11;;;;;;;8.73;5.85;;;;;;;;;;5109746;28;20020;-81
2022/04/15 10:11:38;;;;;;;9.40;6.30;;;;;;;;;;5127042;27;20066;-75
2022/04/15 10:14:04;;;;;;;10.25;5.75;;;;;;;;;;5128371;27;20484;-82
2022/04/15 10:16:30;;;;;;;9.02;6.00;;;;;;;;;;5099375;28;20023;-83
2022/04/15 10:19:00;;;;;;;9.45;5.82;;;;;;;;;;5118423;27;20031;-77
2022/04/15 10:21:25;;;;;;;10.00;6.43;;;;;;;;;;5136697;27;20051;-82
2022/04/15 10:23:51;;;;;;;8.57;5.82;;;;;;;;;;5130005;27;20087;-82
2022/04/15 10:26:18;;;;;;;8.30;5.55;;;;;;;;;;5114868;28;20043;-79
2022/04/15 10:28:44;;;;;;;9.95;5.63;;;;;;;;;;5113526;28;20452;-77
2022/04/15 10:31:11;;;;;;;7.82;5.13;;;;;;;;;;5114269;28;20024;-80
2022/04/15 10:33:39;;;;;;;10.57;5.13;;;;;;;;;;5113953;28;20034;-80
2022/04/15 10:36:22;;;;;;;6.20;4.00;;;;;;;;;;5115556;27;20035;-81
2022/04/15 10:39:03;;;;;;;6.85;4.40;;;;;;;;;;5103191;28;20122;-79
2022/04/15 10:41:29;;;;;;;5.75;4.47;;;;;;;;;;5099416;28;20031;-80
2022/04/15 10:43:58;;;;;;;9.10;5.40;;;;;;;;;;5120233;28;20011;-80
2022/04/15 10:46:37;;;;;;;23.90;7.43;;;;;;;;;;5114651;28;20103;-83
2022/04/15 10:49:26;;;;;;;14.30;5.35;;;;;;;;;;5087036;28;20097;-79
2022/04/15 10:52:02;;;;;;;14.25;6.90;;;;;;;;;;5090211;28;20032;-80
2022/04/15 10:54:42;;;;;;;10.90;5.90;;;;;;;;;;5090196;28;20028;-79
2022/04/15 10:57:14;;;;;;;9.20;6.10;;;;;;;;;;5102772;28;20035;-79
2022/04/15 11:02:57;;;;;;;11.50;5.68;;;;;;;;;;5107429;28;20077;-84
2022/04/15 11:05:44;;;;;;;10.50;6.05;;;;;;;;;;5124095;28;20453;-79
2022/04/15 11:08:11;;;;;;;11.05;7.38;;;;;;;;;;5103321;28;20020;-79
2022/04/15 11:10:54;;;;;;;9.85;6.00;;;;;;;;;;5079108;28;20074;-82
2022/04/15 11:13:23;;;;;;;9.63;5.63;;;;;;;;;;5098708;28;20038;-83
2022/04/15 11:16:10;;;;;;;10.95;4.85;;;;;;;;;;5105990;28;20031;-79
2022/04/15 11:19:00;;;;;;;7.13;4.05;;;;;;;;;;5109080;28;20093;-85
2022/04/15 11:21:30;;;;;;;10.75;6.93;;;;;;;;;;5092020;28;20465;-88
2022/04/15 11:24:04;;;;;;;8.55;5.95;;;;;;;;;;5107157;28;20080;-82
2022/04/15 11:26:29;;;;;;;12.65;6.95;;;;;;;;;;5093915;28;20442;-81
2022/04/15 11:28:59;;;;;;;14.05;7.78;;;;;;;;;;5092024;28;20031;-79
2022/04/15 11:31:35;;;;;;;9.98;4.20;;;;;;;;;;5081253;28;20036;-84
2022/04/15 11:34:08;;;;;;;8.20;4.30;;;;;;;;;;5097620;28;20024;-82
2022/04/15 11:36:39;;;;;;;10.25;4.65;;;;;;;;;;5097096;28;20043;-80
2022/04/15 11:39:08;;;;;;;289.27;187.55;;;;;;;;;;5079548;28;20043;-80
2022/04/15 11:41:33;;;;;;;10.05;4.40;;;;;;;;;;5091775;28;20024;-79
2022/04/15 11:44:03;;;;;;;9.05;5.70;;;;;;;;;;5103784;28;20312;-80
2022/04/15 11:46:35;;;;;;;14.93;8.82;;;;;;;;;;5094288;28;20031;-81
2022/04/15 11:49:01;;;;;;;8.20;4.40;;;;;;;;;;5091801;28;20118;-78
2022/04/15 11:51:27;;;;;;;5.53;3.80;;;;;;;;;;5092771;28;20106;-80
2022/04/15 11:53:54;;;;;;;26.15;19.45;;;;;;;;;;5091671;28;20020;-81
2022/04/15 11:56:24;;;;;;;6.25;4.70;;;;;;;;;;5092441;28;20039;-78
2022/04/15 11:58:49;;;;;;;39.78;21.42;;;;;;;;;;5075012;28;20093;-80
2022/04/15 12:01:25;;;;;;;7.32;4.00;;;;;;;;;;5094298;28;20024;-82
2022/04/15 12:03:50;;;;;;;7.35;4.00;;;;;;;;;;5087116;28;20024;-81
2022/04/15 12:06:16;;;;;;;9.43;4.65;;;;;;;;;;5079404;28;20085;-82
2022/04/15 12:08:42;;;;;;;13.15;5.00;;;;;;;;;;5094046;28;20088;-80
2022/04/15 12:11:09;;;;;;;5.30;3.78;;;;;;;;;;5094237;28;20393;-80
2022/04/15 12:13:34;;;;;;;8.00;3.85;;;;;;;;;;5094248;28;20028;-79
2022/04/15 12:16:00;;;;;;;6.38;3.72;;;;;;;;;;5077092;28;20085;-87
2022/04/15 12:18:25;;;;;;;7.75;3.30;;;;;;;;;;5093384;28;20036;-85
2022/04/15 12:20:51;;;;;;;7.00;3.40;;;;;;;;;;5092735;28;20035;-88
2022/04/15 12:23:17;;;;;;;6.88;4.63;;;;;;;;;;5094417;28;20027;-87
2022/04/15 12:31:46;;;;;;;5.28;3.42;;;;;;;;;;5092526;28;20150;-87
2022/04/15 12:34:11;;;;;;;6.70;2.83;;;;;;;;;;5094515;28;20024;-88
2022/04/15 12:36:40;;;;;;;6.45;3.72;;;;;;;;;;5093883;28;20110;-88
2022/04/15 12:39:06;;;;;;;6.85;3.40;;;;;;;;;;5092025;28;20040;-85
2022/04/15 12:41:46;;;;;;;4.97;3.17;;;;;;;;;;5092855;28;20039;-87
2022/04/15 12:44:19;;;;;;;9.07;3.08;;;;;;;;;;5104286;28;20079;-87
2022/04/15 12:46:47;;;;;;;6.28;3.60;;;;;;;;;;5091760;28;20028;-89
2022/04/15 12:49:27;;;;;;;12.80;4.00;;;;;;;;;;5093794;28;20073;-88
2022/04/15 12:51:58;;;;;;;5.18;3.03;;;;;;;;;;5093749;28;20039;-89
2022/04/15 12:54:24;;;;;;;8.68;3.45;;;;;;;;;;5093888;28;20449;-89
2022/04/15 12:56:57;;;;;;;7.53;3.50;;;;;;;;;;5093773;28;20180;-89
2022/04/15 12:59:23;;;;;;;4.70;3.13;;;;;;;;;;5092806;28;20357;-88
2022/04/15 13:01:49;;;;;;;4.15;3.10;;;;;;;;;;5094379;28;20035;-89
2022/04/15 13:04:15;;;;;;;7.35;3.42;;;;;;;;;;5108211;28;20012;-85
2022/04/15 13:06:40;;;;;;;4.47;3.00;;;;;;;;;;5097901;28;20055;-88
2022/04/15 13:09:06;;;;;;;4.03;3.00;;;;;;;;;;5096155;28;20434;-88
2022/04/15 13:11:31;;;;;;;8.35;3.00;;;;;;;;;;5097046;28;20358;-87
2022/04/15 13:13:57;;;;;;;8.00;3.25;;;;;;;;;;5096189;28;20089;-88
2022/04/15 13:16:22;;;;;;;4.00;2.97;;;;;;;;;;5079084;28;20035;-88
2022/04/15 13:18:49;;;;;;;5.50;3.15;;;;;;;;;;5097446;28;20063;-88
2022/04/15 13:21:14;;;;;;;5.35;3.20;;;;;;;;;;5095356;28;20031;-88
2022/04/15 13:23:40;;;;;;;4.75;2.80;;;;;;;;;;5102340;28;20008;-87
2022/04/15 13:26:05;;;;;;;4.15;2.90;;;;;;;;;;5103569;28;20032;-90
2022/04/15 13:28:31;;;;;;;4.18;2.83;;;;;;;;;;5094672;28;20441;-88
2022/04/15 13:30:57;;;;;;;7.75;3.45;;;;;;;;;;5094533;28;20020;-87
2022/04/15 13:33:22;;;;;;;6.22;3.05;;;;;;;;;;5095149;28;20099;-87
2022/04/15 13:35:48;;;;;;;5.40;2.85;;;;;;;;;;5096180;28;20020;-88
2022/04/15 13:38:13;;;;;;;12.52;3.50;;;;;;;;;;5095934;28;20422;-88
2022/04/15 13:40:41;;;;;;;7.15;3.25;;;;;;;;;;5096745;28;20024;-87
2022/04/15 13:43:07;;;;;;;5.10;3.00;;;;;;;;;;5097065;28;20081;-85
2022/04/15 13:45:33;;;;;;;3.63;2.50;;;;;;;;;;5111174;28;20036;-88
2022/04/15 13:47:58;;;;;;;4.18;2.70;;;;;;;;;;5095308;28;20047;-88
2022/04/15 13:50:23;;;;;;;3.60;2.78;;;;;;;;;;5096602;28;20093;-88
2022/04/15 13:58:26;;;;;;;6.40;2.95;;;;;;;;;;5087676;28;20063;-90
2022/04/15 14:00:51;;;;;;;6.70;2.88;;;;;;;;;;5095734;28;20429;-87
2022/04/15 14:03:17;;;;;;;5.57;2.55;;;;;;;;;;5098439;28;20020;-88
2022/04/15 14:05:42;;;;;;;3.67;2.50;;;;;;;;;;5106871;28;20032;-86
2022/04/15 14:08:08;;;;;;;5.93;2.65;;;;;;;;;;5095368;28;20429;-88
2022/04/15 14:10:38;;;;;;;2.80;2.20;;;;;;;;;;5094816;28;20024;-87
2022/04/15 14:13:03;;;;;;;3.75;2.20;;;;;;;;;;5096262;28;20024;-89
2022/04/15 14:15:29;;;;;;;5.03;2.50;;;;;;;;;;5096419;28;20035;-89
2022/04/15 14:17:58;;;;;;;3.42;2.20;;;;;;;;;;5094859;28;20028;-88
2022/04/15 14:20:24;;;;;;;3.35;2.50;;;;;;;;;;5095172;28;20024;-89
2022/04/15 14:22:49;;;;;;;6.35;2.25;;;;;;;;;;5096111;28;20020;-89
2022/04/15 14:25:15;;;;;;;3.42;2.30;;;;;;;;;;5107753;28;20032;-89
2022/04/15 14:27:41;;;;;;;3.78;2.50;;;;;;;;;;5078943;28;20020;-88
2022/04/15 14:30:07;;;;;;;2.65;2.20;;;;;;;;;;5094713;28;20464;-86
2022/04/15 14:32:32;;;;;;;2.45;2.15;;;;;;;;;;5096394;28;20058;-89
2022/04/15 14:34:58;;;;;;;3.10;2.17;;;;;;;;;;5094700;28;20541;-88
2022/04/15 14:37:23;;;;;;;3.85;2.28;;;;;;;;;;5095528;28;20468;-88
2022/04/15 14:39:49;;;;;;;4.13;2.55;;;;;;;;;;5097250;28;20100;-89
2022/04/15 14:42:16;;;;;;;2.55;2.30;;;;;;;;;;5101717;28;20479;-87
2022/04/15 14:44:41;;;;;;;3.38;2.22;;;;;;;;;;5105313;28;20035;-81
2022/04/15 14:47:07;;;;;;;5.30;2.80;;;;;;;;;;5106524;28;20020;-88
2022/04/15 14:49:32;;;;;;;5.63;2.30;;;;;;;;;;5103690;28;20365;-87
2022/04/15 14:51:58;;;;;;;3.55;2.55;;;;;;;;;;5101111;28;20038;-89
2022/04/15 14:54:23;;;;;;;4.32;2.15;;;;;;;;;;5095467;28;20028;-88
2022/04/15 14:56:49;;;;;;;4.18;2.28;;;;;;;;;;5094205;28;20032;-89
2022/04/15 14:59:14;;;;;;;2.75;1.95;;;;;;;;;;5094350;28;20479;-88